sensor_id;sensor_type;location;lat;lon;timestamp;P1;durP1;ratioP1;P2;durP2;ratioP2
18879;SDS011;9572;52.378;13.404;2023-01-01T00:00:13;8.38;;;4.65;;
18879;SDS011;9572;52.378;13.404;2023-01-01T00:02:40;10.45;;;5.28;;
18879;SDS011;9572;52.378;13.404;2023-01-01T00:05:07;8.60;;;5.05;;
18879;SDS011;9572;52.378;13.404;2023-01-01T00:07:34;6.05;;;3.85;;
18879;SDS011;9572;52.378;13.404;2023-01-01T00:10:01;7.50;;;4.60;;
18879;SDS011;9572;52.378;13.404;2023-01-01T00:12:47;7.85;;;3.67;;
18879;SDS011;9572;52.378;13.404;2023-01-01T00:15:14;9.43;;;4.80;;
18879;SDS011;9572;52.378;13.404;2023-01-01T00:17:41;6.07;;;3.30;;
18879;SDS011;9572;52.378;13.404;2023-01-01T00:20:08;8.57;;;3.10;;
18879;SDS011;9572;52.378;13.404;2023-01-01T00:22:35;7.32;;;3.38;;
18879;SDS011;9572;52.378;13.404;2023-01-01T00:25:02;7.43;;;3.08;;
18879;SDS011;9572;52.378;13.404;2023-01-01T00:27:30;8.80;;;2.50;;
18879;SDS011;9572;52.378;13.404;2023-01-01T00:29:58;6.72;;;2.60;;
18879;SDS011;9572;52.378;13.404;2023-01-01T00:32:25;4.05;;;2.15;;
18879;SDS011;9572;52.378;13.404;2023-01-01T00:34:52;7.82;;;2.42;;
18879;SDS011;9572;52.378;13.404;2023-01-01T00:37:19;3.08;;;1.90;;
18879;SDS011;9572;52.378;13.404;2023-01-01T00:39:45;2.97;;;2.03;;
18879;SDS011;9572;52.378;13.404;2023-01-01T00:42:12;5.65;;;2.30;;
18879;SDS011;9572;52.378;13.404;2023-01-01T00:44:39;6.43;;;2.35;;
18879;SDS011;9572;52.378;13.404;2023-01-01T00:47:07;9.10;;;2.55;;
18879;SDS011;9572;52.378;13.404;2023-01-01T00:49:34;5.93;;;2.33;;
18879;SDS011;9572;52.378;13.404;2023-01-01T00:52:01;7.18;;;2.17;;
18879;SDS011;9572;52.378;13.404;2023-01-01T00:54:28;6.13;;;2.20;;
18879;SDS011;9572;52.378;13.404;2023-01-01T00:56:55;5.57;;;2.47;;
18879;SDS011;9572;52.378;13.404;2023-01-01T00:59:22;3.88;;;2.40;;
18879;SDS011;9572;52.378;13.404;2023-01-01T01:01:49;6.15;;;2.45;;
18879;SDS011;9572;52.378;13.404;2023-01-01T01:04:17;4.97;;;2.80;;
18879;SDS011;9572;52.378;13.404;2023-01-01T01:06:44;9.40;;;2.80;;
18879;SDS011;9572;52.378;13.404;2023-01-01T01:09:11;8.70;;;2.70;;
18879;SDS011;9572;52.378;13.404;2023-01-01T01:11:37;7.90;;;3.17;;
18879;SDS011;9572;52.378;13.404;2023-01-01T01:14:04;4.78;;;2.85;;
18879;SDS011;9572;52.378;13.404;2023-01-01T01:16:32;12.48;;;3.50;;
18879;SDS011;9572;52.378;13.404;2023-01-01T01:18:59;5.90;;;3.03;;
18879;SDS011;9572;52.378;13.404;2023-01-01T01:21:29;6.32;;;3.30;;
18879;SDS011;9572;52.378;13.404;2023-01-01T01:23:57;8.68;;;3.70;;
18879;SDS011;9572;52.378;13.404;2023-01-01T01:26:26;7.28;;;3.30;;
18879;SDS011;9572;52.378;13.404;2023-01-01T01:28:54;9.60;;;3.70;;
18879;SDS011;9572;52.378;13.404;2023-01-01T01:31:22;8.90;;;3.38;;
18879;SDS011;9572;52.378;13.404;2023-01-01T01:33:51;12.80;;;3.60;;
18879;SDS011;9572;52.378;13.404;2023-01-01T01:36:18;10.35;;;3.75;;
18879;SDS011;9572;52.378;13.404;2023-01-01T01:38:46;8.88;;;3.70;;
18879;SDS011;9572;52.378;13.404;2023-01-01T01:41:14;6.43;;;3.47;;
18879;SDS011;9572;52.378;13.404;2023-01-01T01:43:51;8.20;;;3.50;;
18879;SDS011;9572;52.378;13.404;2023-01-01T01:46:20;12.40;;;3.83;;
18879;SDS011;9572;52.378;13.404;2023-01-01T01:48:51;11.23;;;3.97;;
18879;SDS011;9572;52.378;13.404;2023-01-01T01:51:21;9.60;;;4.20;;
18879;SDS011;9572;52.378;13.404;2023-01-01T01:53:55;10.27;;;4.43;;
18879;SDS011;9572;52.378;13.404;2023-01-01T01:56:26;9.48;;;4.82;;
18879;SDS011;9572;52.378;13.404;2023-01-01T01:58:56;9.63;;;3.85;;
18879;SDS011;9572;52.378;13.404;2023-01-01T02:01:24;16.48;;;4.40;;
18879;SDS011;9572;52.378;13.404;2023-01-01T02:03:52;7.47;;;4.03;;
18879;SDS011;9572;52.378;13.404;2023-01-01T02:06:23;9.55;;;4.05;;
18879;SDS011;9572;52.378;13.404;2023-01-01T02:08:51;14.82;;;5.03;;
18879;SDS011;9572;52.378;13.404;2023-01-01T02:11:20;10.63;;;4.43;;
18879;SDS011;9572;52.378;13.404;2023-01-01T02:13:47;8.68;;;4.18;;
18879;SDS011;9572;52.378;13.404;2023-01-01T02:16:16;6.57;;;4.10;;
18879;SDS011;9572;52.378;13.404;2023-01-01T02:21:24;11.00;;;3.88;;
18879;SDS011;9572;52.378;13.404;2023-01-01T02:26:49;9.95;;;4.22;;
18879;SDS011;9572;52.378;13.404;2023-01-01T02:29:29;9.80;;;4.32;;
18879;SDS011;9572;52.378;13.404;2023-01-01T02:32:04;13.93;;;4.40;;
18879;SDS011;9572;52.378;13.404;2023-01-01T02:34:35;9.85;;;4.55;;
18879;SDS011;9572;52.378;13.404;2023-01-01T02:37:05;8.57;;;4.10;;
18879;SDS011;9572;52.378;13.404;2023-01-01T02:39:36;8.93;;;3.60;;
18879;SDS011;9572;52.378;13.404;2023-01-01T02:42:07;8.75;;;3.63;;
18879;SDS011;9572;52.378;13.404;2023-01-01T02:44:36;8.25;;;3.45;;
18879;SDS011;9572;52.378;13.404;2023-01-01T02:47:07;10.07;;;3.47;;
18879;SDS011;9572;52.378;13.404;2023-01-01T02:49:36;10.82;;;4.45;;
18879;SDS011;9572;52.378;13.404;2023-01-01T02:52:07;8.82;;;3.60;;
18879;SDS011;9572;52.378;13.404;2023-01-01T02:54:40;8.77;;;3.38;;
18879;SDS011;9572;52.378;13.404;2023-01-01T02:57:15;8.30;;;3.47;;
18879;SDS011;9572;52.378;13.404;2023-01-01T02:59:55;7.70;;;3.80;;
18879;SDS011;9572;52.378;13.404;2023-01-01T03:02:52;9.25;;;3.20;;
18879;SDS011;9572;52.378;13.404;2023-01-01T03:05:32;10.10;;;3.10;;
18879;SDS011;9572;52.378;13.404;2023-01-01T03:08:24;9.93;;;3.55;;
18879;SDS011;9572;52.378;13.404;2023-01-01T03:10:57;7.75;;;3.30;;
18879;SDS011;9572;52.378;13.404;2023-01-01T03:13:29;9.32;;;3.53;;
18879;SDS011;9572;52.378;13.404;2023-01-01T03:16:04;9.95;;;3.67;;
18879;SDS011;9572;52.378;13.404;2023-01-01T03:18:38;5.50;;;3.20;;
18879;SDS011;9572;52.378;13.404;2023-01-01T03:21:10;7.95;;;3.72;;
18879;SDS011;9572;52.378;13.404;2023-01-01T03:23:42;6.93;;;3.78;;
18879;SDS011;9572;52.378;13.404;2023-01-01T03:26:13;7.35;;;3.47;;
18879;SDS011;9572;52.378;13.404;2023-01-01T03:28:43;9.02;;;4.07;;
18879;SDS011;9572;52.378;13.404;2023-01-01T03:31:16;5.80;;;3.55;;
18879;SDS011;9572;52.378;13.404;2023-01-01T03:33:46;8.55;;;4.03;;
18879;SDS011;9572;52.378;13.404;2023-01-01T03:36:18;8.98;;;3.50;;
18879;SDS011;9572;52.378;13.404;2023-01-01T03:38:51;8.40;;;3.92;;
18879;SDS011;9572;52.378;13.404;2023-01-01T03:41:22;7.70;;;3.83;;
18879;SDS011;9572;52.378;13.404;2023-01-01T03:43:55;8.00;;;4.07;;
18879;SDS011;9572;52.378;13.404;2023-01-01T03:46:29;9.80;;;3.80;;
18879;SDS011;9572;52.378;13.404;2023-01-01T03:48:59;8.60;;;4.45;;
18879;SDS011;9572;52.378;13.404;2023-01-01T03:51:31;8.20;;;3.83;;
18879;SDS011;9572;52.378;13.404;2023-01-01T03:54:11;11.68;;;3.95;;
18879;SDS011;9572;52.378;13.404;2023-01-01T03:56:46;6.15;;;3.42;;
18879;SDS011;9572;52.378;13.404;2023-01-01T03:59:19;9.07;;;4.03;;
18879;SDS011;9572;52.378;13.404;2023-01-01T04:01:51;11.85;;;3.80;;
18879;SDS011;9572;52.378;13.404;2023-01-01T04:04:22;6.60;;;3.67;;
18879;SDS011;9572;52.378;13.404;2023-01-01T04:06:49;11.30;;;3.67;;
18879;SDS011;9572;52.378;13.404;2023-01-01T04:09:18;10.35;;;3.85;;
18879;SDS011;9572;52.378;13.404;2023-01-01T04:11:48;7.28;;;3.78;;
18879;SDS011;9572;52.378;13.404;2023-01-01T04:14:29;8.73;;;3.72;;
18879;SDS011;9572;52.378;13.404;2023-01-01T04:16:59;10.55;;;3.72;;
18879;SDS011;9572;52.378;13.404;2023-01-01T04:19:28;6.40;;;3.03;;
18879;SDS011;9572;52.378;13.404;2023-01-01T04:21:56;11.40;;;3.28;;
18879;SDS011;9572;52.378;13.404;2023-01-01T04:24:23;9.07;;;3.42;;
18879;SDS011;9572;52.378;13.404;2023-01-01T04:26:49;7.80;;;3.40;;
18879;SDS011;9572;52.378;13.404;2023-01-01T04:29:17;11.27;;;3.40;;
18879;SDS011;9572;52.378;13.404;2023-01-01T04:31:44;9.93;;;3.92;;
18879;SDS011;9572;52.378;13.404;2023-01-01T04:34:13;7.28;;;3.45;;
18879;SDS011;9572;52.378;13.404;2023-01-01T04:36:40;7.95;;;2.80;;
18879;SDS011;9572;52.378;13.404;2023-01-01T04:39:07;8.93;;;3.28;;
18879;SDS011;9572;52.378;13.404;2023-01-01T04:41:34;11.20;;;3.92;;
18879;SDS011;9572;52.378;13.404;2023-01-01T04:44:01;6.18;;;3.00;;
18879;SDS011;9572;52.378;13.404;2023-01-01T04:46:29;7.07;;;2.88;;
18879;SDS011;9572;52.378;13.404;2023-01-01T04:48:56;5.07;;;2.70;;
18879;SDS011;9572;52.378;13.404;2023-01-01T04:51:24;6.82;;;2.90;;
18879;SDS011;9572;52.378;13.404;2023-01-01T04:53:51;9.50;;;3.33;;
18879;SDS011;9572;52.378;13.404;2023-01-01T04:56:19;8.60;;;3.20;;
18879;SDS011;9572;52.378;13.404;2023-01-01T04:58:47;10.73;;;2.60;;
18879;SDS011;9572;52.378;13.404;2023-01-01T05:01:15;6.25;;;2.67;;
18879;SDS011;9572;52.378;13.404;2023-01-01T05:03:43;8.52;;;3.40;;
18879;SDS011;9572;52.378;13.404;2023-01-01T05:06:11;5.03;;;2.83;;
18879;SDS011;9572;52.378;13.404;2023-01-01T05:08:40;7.82;;;3.00;;
18879;SDS011;9572;52.378;13.404;2023-01-01T05:11:09;12.65;;;3.03;;
18879;SDS011;9572;52.378;13.404;2023-01-01T05:13:37;5.35;;;3.10;;
18879;SDS011;9572;52.378;13.404;2023-01-01T05:16:06;5.18;;;3.28;;
18879;SDS011;9572;52.378;13.404;2023-01-01T05:18:36;8.95;;;3.30;;
18879;SDS011;9572;52.378;13.404;2023-01-01T05:21:04;8.05;;;2.92;;
18879;SDS011;9572;52.378;13.404;2023-01-01T05:23:32;9.00;;;3.03;;
18879;SDS011;9572;52.378;13.404;2023-01-01T05:26:03;7.80;;;2.85;;
18879;SDS011;9572;52.378;13.404;2023-01-01T05:28:34;5.20;;;3.45;;
18879;SDS011;9572;52.378;13.404;2023-01-01T05:31:03;13.43;;;3.65;;
18879;SDS011;9572;52.378;13.404;2023-01-01T05:33:31;9.50;;;3.33;;
18879;SDS011;9572;52.378;13.404;2023-01-01T05:35:59;10.18;;;3.35;;
18879;SDS011;9572;52.378;13.404;2023-01-01T05:38:26;7.55;;;3.15;;
18879;SDS011;9572;52.378;13.404;2023-01-01T05:40:53;5.80;;;3.28;;
18879;SDS011;9572;52.378;13.404;2023-01-01T05:43:21;5.55;;;3.20;;
18879;SDS011;9572;52.378;13.404;2023-01-01T05:45:48;4.80;;;2.88;;
18879;SDS011;9572;52.378;13.404;2023-01-01T05:48:24;7.72;;;2.65;;
18879;SDS011;9572;52.378;13.404;2023-01-01T05:50:51;9.25;;;3.00;;
18879;SDS011;9572;52.378;13.404;2023-01-01T05:53:18;6.63;;;3.28;;
18879;SDS011;9572;52.378;13.404;2023-01-01T05:55:50;6.90;;;3.20;;
18879;SDS011;9572;52.378;13.404;2023-01-01T05:58:18;10.68;;;3.40;;
18879;SDS011;9572;52.378;13.404;2023-01-01T06:00:46;5.22;;;2.78;;
18879;SDS011;9572;52.378;13.404;2023-01-01T06:03:14;6.68;;;2.88;;
18879;SDS011;9572;52.378;13.404;2023-01-01T06:05:41;9.90;;;2.72;;
18879;SDS011;9572;52.378;13.404;2023-01-01T06:08:08;6.50;;;2.90;;
18879;SDS011;9572;52.378;13.404;2023-01-01T06:10:35;6.40;;;3.17;;
18879;SDS011;9572;52.378;13.404;2023-01-01T06:13:02;5.05;;;3.05;;
18879;SDS011;9572;52.378;13.404;2023-01-01T06:15:29;8.32;;;2.90;;
18879;SDS011;9572;52.378;13.404;2023-01-01T06:17:58;8.52;;;2.75;;
18879;SDS011;9572;52.378;13.404;2023-01-01T06:20:25;7.38;;;3.00;;
18879;SDS011;9572;52.378;13.404;2023-01-01T06:22:52;6.45;;;2.78;;
18879;SDS011;9572;52.378;13.404;2023-01-01T06:25:19;7.65;;;2.72;;
18879;SDS011;9572;52.378;13.404;2023-01-01T06:27:45;5.35;;;2.70;;
18879;SDS011;9572;52.378;13.404;2023-01-01T06:30:12;7.45;;;2.65;;
18879;SDS011;9572;52.378;13.404;2023-01-01T06:32:39;6.07;;;2.80;;
18879;SDS011;9572;52.378;13.404;2023-01-01T06:35:08;6.95;;;2.80;;
18879;SDS011;9572;52.378;13.404;2023-01-01T06:37:35;6.93;;;2.50;;
18879;SDS011;9572;52.378;13.404;2023-01-01T06:40:03;5.70;;;2.67;;
18879;SDS011;9572;52.378;13.404;2023-01-01T06:42:30;9.02;;;2.67;;
18879;SDS011;9572;52.378;13.404;2023-01-01T06:44:57;7.75;;;2.80;;
18879;SDS011;9572;52.378;13.404;2023-01-01T06:47:24;6.00;;;3.13;;
18879;SDS011;9572;52.378;13.404;2023-01-01T06:49:51;5.20;;;2.92;;
18879;SDS011;9572;52.378;13.404;2023-01-01T06:52:19;8.55;;;3.40;;
18879;SDS011;9572;52.378;13.404;2023-01-01T06:54:46;6.80;;;2.92;;
18879;SDS011;9572;52.378;13.404;2023-01-01T06:57:13;4.40;;;2.80;;
18879;SDS011;9572;52.378;13.404;2023-01-01T06:59:41;5.20;;;3.13;;
18879;SDS011;9572;52.378;13.404;2023-01-01T07:02:08;7.80;;;2.88;;
18879;SDS011;9572;52.378;13.404;2023-01-01T07:04:36;8.82;;;2.58;;
18879;SDS011;9572;52.378;13.404;2023-01-01T07:07:03;8.63;;;2.90;;
18879;SDS011;9572;52.378;13.404;2023-01-01T07:09:31;6.82;;;3.05;;
18879;SDS011;9572;52.378;13.404;2023-01-01T07:11:58;5.55;;;3.22;;
18879;SDS011;9572;52.378;13.404;2023-01-01T07:14:25;7.20;;;3.30;;
18879;SDS011;9572;52.378;13.404;2023-01-01T07:16:52;6.65;;;3.15;;
18879;SDS011;9572;52.378;13.404;2023-01-01T07:19:19;4.57;;;2.63;;
18879;SDS011;9572;52.378;13.404;2023-01-01T07:21:50;8.18;;;3.13;;
18879;SDS011;9572;52.378;13.404;2023-01-01T07:24:17;5.90;;;2.90;;
18879;SDS011;9572;52.378;13.404;2023-01-01T07:26:46;4.47;;;3.05;;
18879;SDS011;9572;52.378;13.404;2023-01-01T07:29:14;6.65;;;2.92;;
18879;SDS011;9572;52.378;13.404;2023-01-01T07:31:41;7.80;;;3.45;;
18879;SDS011;9572;52.378;13.404;2023-01-01T07:34:10;8.82;;;3.00;;
18879;SDS011;9572;52.378;13.404;2023-01-01T07:36:39;12.45;;;3.38;;
18879;SDS011;9572;52.378;13.404;2023-01-01T07:39:06;5.38;;;3.28;;
18879;SDS011;9572;52.378;13.404;2023-01-01T07:41:33;5.53;;;3.33;;
18879;SDS011;9572;52.378;13.404;2023-01-01T07:44:02;7.95;;;3.42;;
18879;SDS011;9572;52.378;13.404;2023-01-01T07:46:29;7.55;;;3.15;;
18879;SDS011;9572;52.378;13.404;2023-01-01T07:48:58;10.77;;;3.10;;
18879;SDS011;9572;52.378;13.404;2023-01-01T07:51:25;7.43;;;3.58;;
18879;SDS011;9572;52.378;13.404;2023-01-01T07:53:52;9.43;;;3.50;;
18879;SDS011;9572;52.378;13.404;2023-01-01T07:56:19;7.47;;;3.35;;
18879;SDS011;9572;52.378;13.404;2023-01-01T07:58:46;9.02;;;4.05;;
18879;SDS011;9572;52.378;13.404;2023-01-01T08:01:14;6.30;;;3.45;;
18879;SDS011;9572;52.378;13.404;2023-01-01T08:03:41;6.93;;;3.40;;
18879;SDS011;9572;52.378;13.404;2023-01-01T08:06:08;5.88;;;3.50;;
18879;SDS011;9572;52.378;13.404;2023-01-01T08:08:36;8.10;;;3.53;;
18879;SDS011;9572;52.378;13.404;2023-01-01T08:11:03;5.93;;;3.67;;
18879;SDS011;9572;52.378;13.404;2023-01-01T08:13:31;8.93;;;3.72;;
18879;SDS011;9572;52.378;13.404;2023-01-01T08:15:58;7.22;;;3.28;;
18879;SDS011;9572;52.378;13.404;2023-01-01T08:18:26;7.85;;;3.58;;
18879;SDS011;9572;52.378;13.404;2023-01-01T08:20:53;7.03;;;3.25;;
18879;SDS011;9572;52.378;13.404;2023-01-01T08:23:21;5.88;;;3.30;;
18879;SDS011;9572;52.378;13.404;2023-01-01T08:25:48;6.38;;;3.65;;
18879;SDS011;9572;52.378;13.404;2023-01-01T08:28:15;5.30;;;3.33;;
18879;SDS011;9572;52.378;13.404;2023-01-01T08:30:42;8.25;;;3.78;;
18879;SDS011;9572;52.378;13.404;2023-01-01T08:33:09;7.40;;;3.20;;
18879;SDS011;9572;52.378;13.404;2023-01-01T08:35:37;6.80;;;3.05;;
18879;SDS011;9572;52.378;13.404;2023-01-01T08:38:07;5.78;;;2.90;;
18879;SDS011;9572;52.378;13.404;2023-01-01T08:40:35;8.27;;;3.10;;
18879;SDS011;9572;52.378;13.404;2023-01-01T08:43:02;8.63;;;3.85;;
18879;SDS011;9572;52.378;13.404;2023-01-01T08:45:29;9.07;;;3.22;;
18879;SDS011;9572;52.378;13.404;2023-01-01T08:47:56;6.32;;;3.47;;
18879;SDS011;9572;52.378;13.404;2023-01-01T08:50:23;7.75;;;2.97;;
18879;SDS011;9572;52.378;13.404;2023-01-01T08:52:51;4.70;;;2.90;;
18879;SDS011;9572;52.378;13.404;2023-01-01T08:55:18;8.57;;;3.35;;
18879;SDS011;9572;52.378;13.404;2023-01-01T08:57:45;7.63;;;3.10;;
18879;SDS011;9572;52.378;13.404;2023-01-01T09:00:12;5.57;;;2.85;;
18879;SDS011;9572;52.378;13.404;2023-01-01T09:02:40;6.20;;;3.35;;
18879;SDS011;9572;52.378;13.404;2023-01-01T09:05:07;5.95;;;2.85;;
18879;SDS011;9572;52.378;13.404;2023-01-01T09:07:35;5.50;;;2.90;;
18879;SDS011;9572;52.378;13.404;2023-01-01T09:10:03;6.10;;;2.80;;
18879;SDS011;9572;52.378;13.404;2023-01-01T09:12:31;9.13;;;3.00;;
18879;SDS011;9572;52.378;13.404;2023-01-01T09:14:58;5.40;;;2.88;;
18879;SDS011;9572;52.378;13.404;2023-01-01T09:17:25;5.03;;;2.92;;
18879;SDS011;9572;52.378;13.404;2023-01-01T09:19:51;4.13;;;2.40;;
18879;SDS011;9572;52.378;13.404;2023-01-01T09:22:18;8.30;;;3.10;;
18879;SDS011;9572;52.378;13.404;2023-01-01T09:24:45;5.88;;;3.00;;
18879;SDS011;9572;52.378;13.404;2023-01-01T09:27:13;6.55;;;2.88;;
18879;SDS011;9572;52.378;13.404;2023-01-01T09:29:40;6.45;;;2.83;;
18879;SDS011;9572;52.378;13.404;2023-01-01T09:32:07;3.90;;;2.50;;
18879;SDS011;9572;52.378;13.404;2023-01-01T09:34:34;5.47;;;2.60;;
18879;SDS011;9572;52.378;13.404;2023-01-01T09:37:01;8.98;;;2.78;;
18879;SDS011;9572;52.378;13.404;2023-01-01T09:39:28;6.88;;;2.50;;
18879;SDS011;9572;52.378;13.404;2023-01-01T09:42:03;12.40;;;2.80;;
18879;SDS011;9572;52.378;13.404;2023-01-01T09:44:48;4.60;;;2.50;;
18879;SDS011;9572;52.378;13.404;2023-01-01T09:47:22;5.00;;;2.53;;
18879;SDS011;9572;52.378;13.404;2023-01-01T09:49:53;8.38;;;2.60;;
18879;SDS011;9572;52.378;13.404;2023-01-01T09:52:27;5.32;;;2.33;;
18879;SDS011;9572;52.378;13.404;2023-01-01T09:55:02;6.40;;;2.17;;
18879;SDS011;9572;52.378;13.404;2023-01-01T09:57:34;8.00;;;2.90;;
18879;SDS011;9572;52.378;13.404;2023-01-01T10:00:05;5.85;;;2.17;;
18879;SDS011;9572;52.378;13.404;2023-01-01T10:02:42;3.63;;;2.03;;
18879;SDS011;9572;52.378;13.404;2023-01-01T10:05:34;6.25;;;2.85;;
18879;SDS011;9572;52.378;13.404;2023-01-01T10:08:09;4.60;;;2.38;;
18879;SDS011;9572;52.378;13.404;2023-01-01T10:10:46;4.10;;;2.40;;
18879;SDS011;9572;52.378;13.404;2023-01-01T10:13:21;8.57;;;2.60;;
18879;SDS011;9572;52.378;13.404;2023-01-01T10:15:55;4.05;;;2.42;;
18879;SDS011;9572;52.378;13.404;2023-01-01T10:18:26;4.72;;;2.50;;
18879;SDS011;9572;52.378;13.404;2023-01-01T10:20:58;10.80;;;2.60;;
18879;SDS011;9572;52.378;13.404;2023-01-01T10:23:31;12.10;;;2.50;;
18879;SDS011;9572;52.378;13.404;2023-01-01T10:26:06;3.72;;;2.05;;
18879;SDS011;9572;52.378;13.404;2023-01-01T10:28:38;4.10;;;2.00;;
18879;SDS011;9572;52.378;13.404;2023-01-01T10:31:18;3.55;;;2.28;;
18879;SDS011;9572;52.378;13.404;2023-01-01T10:33:50;5.97;;;2.33;;
18879;SDS011;9572;52.378;13.404;2023-01-01T10:36:17;6.30;;;2.67;;
18879;SDS011;9572;52.378;13.404;2023-01-01T10:38:45;8.38;;;2.60;;
18879;SDS011;9572;52.378;13.404;2023-01-01T10:41:13;3.25;;;2.03;;
18879;SDS011;9572;52.378;13.404;2023-01-01T10:43:41;5.63;;;2.15;;
18879;SDS011;9572;52.378;13.404;2023-01-01T10:46:10;5.07;;;2.35;;
18879;SDS011;9572;52.378;13.404;2023-01-01T10:48:40;6.60;;;2.17;;
18879;SDS011;9572;52.378;13.404;2023-01-01T10:51:31;5.22;;;2.38;;
18879;SDS011;9572;52.378;13.404;2023-01-01T10:54:00;5.25;;;2.22;;
18879;SDS011;9572;52.378;13.404;2023-01-01T10:56:36;11.05;;;2.45;;
18879;SDS011;9572;52.378;13.404;2023-01-01T10:59:26;4.97;;;2.30;;
18879;SDS011;9572;52.378;13.404;2023-01-01T11:02:10;10.85;;;2.47;;
18879;SDS011;9572;52.378;13.404;2023-01-01T11:04:43;5.25;;;2.00;;
18879;SDS011;9572;52.378;13.404;2023-01-01T11:07:12;5.85;;;2.05;;
18879;SDS011;9572;52.378;13.404;2023-01-01T11:09:46;3.38;;;1.98;;
18879;SDS011;9572;52.378;13.404;2023-01-01T11:12:16;6.72;;;2.40;;
18879;SDS011;9572;52.378;13.404;2023-01-01T11:14:47;4.30;;;2.13;;
18879;SDS011;9572;52.378;13.404;2023-01-01T11:17:19;4.68;;;1.83;;
18879;SDS011;9572;52.378;13.404;2023-01-01T11:19:49;7.13;;;1.70;;
18879;SDS011;9572;52.378;13.404;2023-01-01T11:25:14;4.65;;;2.15;;
18879;SDS011;9572;52.378;13.404;2023-01-01T11:27:43;4.40;;;1.90;;
18879;SDS011;9572;52.378;13.404;2023-01-01T11:30:18;5.05;;;1.98;;
18879;SDS011;9572;52.378;13.404;2023-01-01T11:32:47;5.68;;;2.13;;
18879;SDS011;9572;52.378;13.404;2023-01-01T11:35:17;6.38;;;2.08;;
18879;SDS011;9572;52.378;13.404;2023-01-01T11:37:47;9.85;;;2.05;;
18879;SDS011;9572;52.378;13.404;2023-01-01T11:40:17;3.83;;;1.52;;
18879;SDS011;9572;52.378;13.404;2023-01-01T11:42:47;4.88;;;2.25;;
18879;SDS011;9572;52.378;13.404;2023-01-01T11:45:18;3.67;;;1.65;;
18879;SDS011;9572;52.378;13.404;2023-01-01T11:47:50;5.57;;;2.58;;
18879;SDS011;9572;52.378;13.404;2023-01-01T11:50:23;6.40;;;2.15;;
18879;SDS011;9572;52.378;13.404;2023-01-01T11:52:54;5.32;;;1.95;;
18879;SDS011;9572;52.378;13.404;2023-01-01T11:55:26;3.95;;;1.80;;
18879;SDS011;9572;52.378;13.404;2023-01-01T11:58:00;4.85;;;2.00;;
18879;SDS011;9572;52.378;13.404;2023-01-01T12:00:36;5.65;;;2.10;;
18879;SDS011;9572;52.378;13.404;2023-01-01T12:03:05;5.65;;;2.00;;
18879;SDS011;9572;52.378;13.404;2023-01-01T12:05:44;7.00;;;2.20;;
18879;SDS011;9572;52.378;13.404;2023-01-01T12:08:15;6.07;;;2.17;;
18879;SDS011;9572;52.378;13.404;2023-01-01T12:10:50;2.63;;;1.60;;
18879;SDS011;9572;52.378;13.404;2023-01-01T12:13:21;5.85;;;2.05;;
18879;SDS011;9572;52.378;13.404;2023-01-01T12:15:54;6.07;;;2.17;;
18879;SDS011;9572;52.378;13.404;2023-01-01T12:18:28;4.85;;;2.15;;
18879;SDS011;9572;52.378;13.404;2023-01-01T12:21:02;5.82;;;2.10;;
18879;SDS011;9572;52.378;13.404;2023-01-01T12:23:36;4.00;;;1.98;;
18879;SDS011;9572;52.378;13.404;2023-01-01T12:26:05;5.82;;;2.20;;
18879;SDS011;9572;52.378;13.404;2023-01-01T12:28:42;7.60;;;2.67;;
18879;SDS011;9572;52.378;13.404;2023-01-01T12:31:40;6.20;;;2.40;;
18879;SDS011;9572;52.378;13.404;2023-01-01T12:34:14;4.53;;;2.00;;
18879;SDS011;9572;52.378;13.404;2023-01-01T12:36:47;7.15;;;2.22;;
18879;SDS011;9572;52.378;13.404;2023-01-01T12:42:19;10.10;;;2.20;;
18879;SDS011;9572;52.378;13.404;2023-01-01T12:45:02;5.00;;;1.70;;
18879;SDS011;9572;52.378;13.404;2023-01-01T12:47:43;7.72;;;2.33;;
18879;SDS011;9572;52.378;13.404;2023-01-01T12:50:19;5.18;;;2.30;;
18879;SDS011;9572;52.378;13.404;2023-01-01T12:52:58;3.92;;;2.47;;
18879;SDS011;9572;52.378;13.404;2023-01-01T12:55:42;7.57;;;2.75;;
18879;SDS011;9572;52.378;13.404;2023-01-01T12:58:28;5.20;;;2.50;;
18879;SDS011;9572;52.378;13.404;2023-01-01T13:00:58;5.28;;;2.45;;
18879;SDS011;9572;52.378;13.404;2023-01-01T13:03:31;4.88;;;2.38;;
18879;SDS011;9572;52.378;13.404;2023-01-01T13:06:01;6.90;;;2.55;;
18879;SDS011;9572;52.378;13.404;2023-01-01T13:08:31;11.13;;;2.75;;
18879;SDS011;9572;52.378;13.404;2023-01-01T13:11:00;8.95;;;2.35;;
18879;SDS011;9572;52.378;13.404;2023-01-01T13:13:28;6.63;;;2.38;;
18879;SDS011;9572;52.378;13.404;2023-01-01T13:15:55;5.25;;;2.50;;
18879;SDS011;9572;52.378;13.404;2023-01-01T13:18:27;10.55;;;2.63;;
18879;SDS011;9572;52.378;13.404;2023-01-01T13:20:57;17.38;;;3.15;;
18879;SDS011;9572;52.378;13.404;2023-01-01T13:23:47;5.30;;;2.10;;
18879;SDS011;9572;52.378;13.404;2023-01-01T13:26:31;9.00;;;3.00;;
18879;SDS011;9572;52.378;13.404;2023-01-01T13:32:07;6.20;;;3.03;;
18879;SDS011;9572;52.378;13.404;2023-01-01T13:37:28;6.00;;;2.50;;
18879;SDS011;9572;52.378;13.404;2023-01-01T13:39:58;5.07;;;2.30;;
18879;SDS011;9572;52.378;13.404;2023-01-01T13:42:42;5.93;;;2.47;;
18879;SDS011;9572;52.378;13.404;2023-01-01T13:45:17;5.38;;;2.60;;
18879;SDS011;9572;52.378;13.404;2023-01-01T13:47:54;5.90;;;2.80;;
18879;SDS011;9572;52.378;13.404;2023-01-01T13:50:33;6.78;;;2.85;;
18879;SDS011;9572;52.378;13.404;2023-01-01T13:53:17;6.25;;;2.72;;
18879;SDS011;9572;52.378;13.404;2023-01-01T13:56:09;5.25;;;2.50;;
18879;SDS011;9572;52.378;13.404;2023-01-01T14:01:47;6.55;;;2.63;;
18879;SDS011;9572;52.378;13.404;2023-01-01T14:04:24;9.52;;;3.35;;
18879;SDS011;9572;52.378;13.404;2023-01-01T14:06:56;7.43;;;2.95;;
18879;SDS011;9572;52.378;13.404;2023-01-01T14:09:26;7.70;;;2.67;;
18879;SDS011;9572;52.378;13.404;2023-01-01T14:11:54;8.32;;;2.95;;
18879;SDS011;9572;52.378;13.404;2023-01-01T14:14:24;9.25;;;2.85;;
18879;SDS011;9572;52.378;13.404;2023-01-01T14:16:52;8.07;;;2.88;;
18879;SDS011;9572;52.378;13.404;2023-01-01T14:19:21;11.98;;;2.90;;
18879;SDS011;9572;52.378;13.404;2023-01-01T14:21:49;5.72;;;2.60;;
18879;SDS011;9572;52.378;13.404;2023-01-01T14:24:18;7.40;;;3.00;;
18879;SDS011;9572;52.378;13.404;2023-01-01T14:26:46;5.55;;;3.35;;
18879;SDS011;9572;52.378;13.404;2023-01-01T14:29:17;8.82;;;3.15;;
18879;SDS011;9572;52.378;13.404;2023-01-01T14:31:48;9.98;;;3.60;;
18879;SDS011;9572;52.378;13.404;2023-01-01T14:34:15;6.60;;;3.33;;
18879;SDS011;9572;52.378;13.404;2023-01-01T14:36:49;8.48;;;3.22;;
18879;SDS011;9572;52.378;13.404;2023-01-01T14:39:21;7.10;;;3.05;;
18879;SDS011;9572;52.378;13.404;2023-01-01T14:41:50;6.25;;;2.42;;
18879;SDS011;9572;52.378;13.404;2023-01-01T14:44:20;9.38;;;3.28;;
18879;SDS011;9572;52.378;13.404;2023-01-01T14:46:53;10.15;;;3.80;;
18879;SDS011;9572;52.378;13.404;2023-01-01T14:49:22;12.15;;;3.42;;
18879;SDS011;9572;52.378;13.404;2023-01-01T14:51:54;8.23;;;3.42;;
18879;SDS011;9572;52.378;13.404;2023-01-01T14:54:27;7.05;;;3.25;;
18879;SDS011;9572;52.378;13.404;2023-01-01T14:56:57;7.80;;;3.50;;
18879;SDS011;9572;52.378;13.404;2023-01-01T14:59:27;7.18;;;3.45;;
18879;SDS011;9572;52.378;13.404;2023-01-01T15:01:59;7.57;;;3.35;;
18879;SDS011;9572;52.378;13.404;2023-01-01T15:04:27;9.05;;;3.95;;
18879;SDS011;9572;52.378;13.404;2023-01-01T15:06:54;8.27;;;4.80;;
18879;SDS011;9572;52.378;13.404;2023-01-01T15:09:23;11.02;;;4.30;;
18879;SDS011;9572;52.378;13.404;2023-01-01T15:11:51;8.73;;;4.00;;
18879;SDS011;9572;52.378;13.404;2023-01-01T15:14:30;10.20;;;3.75;;
18879;SDS011;9572;52.378;13.404;2023-01-01T15:16:59;11.23;;;3.95;;
18879;SDS011;9572;52.378;13.404;2023-01-01T15:19:27;10.02;;;3.70;;
18879;SDS011;9572;52.378;13.404;2023-01-01T15:21:54;6.25;;;3.33;;
18879;SDS011;9572;52.378;13.404;2023-01-01T15:24:22;8.90;;;3.20;;